Chelmsley Wood, United Kingdom
Current Conditions -  °F | °C
As of 9:50 PM on Thursday 27 Nov 2014 (Local Time) from EGBB Reporting Station
Broken Clouds Broken Clouds  
Wind Chill: 41°   Ceiling: 1700
Heat Index: 45°   Visibility: 6mi
Dew Point: 43°   Wind: 6mph
Humidity: 93%   Direction: 100°E
Pressure: 29.59"   Gusts: NA
Location:  52.48°N, 1.74°W
Report Text: EGBB 272150Z 10005KT 9999 SCT008 BKN017 07/06 Q1002
Loading
Personal Weather Stations






























Interactive Weather Map New forecast layout! Learn more

10-Day Weather Forecast

Advertisements
Track Severe Weather on mobile